createdAt,value
2022-12-12T00:04:52.045Z,8.03
2022-12-12T00:09:54.199Z,7.27
2022-12-12T00:14:56.369Z,7.30
2022-12-12T00:19:59.804Z,7.60
2022-12-12T00:25:01.491Z,8.80
2022-12-12T00:30:05.171Z,7.60
2022-12-12T00:35:08.765Z,7.83
2022-12-12T00:40:12.711Z,6.80
2022-12-12T00:45:15.058Z,7.20
2022-12-12T00:50:18.505Z,8.10
2022-12-12T00:55:20.281Z,7.03
2022-12-12T01:00:22.805Z,7.43
2022-12-12T01:05:26.876Z,8.67
2022-12-12T01:10:28.912Z,6.30
2022-12-12T01:15:31.049Z,7.00
2022-12-12T01:20:34.383Z,8.07
2022-12-12T01:25:36.230Z,8.13
2022-12-12T01:30:38.075Z,7.10
2022-12-12T01:35:41.176Z,6.83
2022-12-12T01:40:43.597Z,6.97
2022-12-12T01:46:33.828Z,8.67
2022-12-12T01:51:37.588Z,9.17
2022-12-12T01:56:42.093Z,9.00
2022-12-12T02:01:44.530Z,7.43
2022-12-12T02:06:50.012Z,7.10
2022-12-12T02:11:53.819Z,8.03
2022-12-12T02:17:13.922Z,7.43
2022-12-12T02:22:33.652Z,7.93
2022-12-12T02:27:46.621Z,7.83
2022-12-12T02:33:10.567Z,8.10
2022-12-12T02:38:21.866Z,7.23
2022-12-12T02:43:31.940Z,7.83
2022-12-12T02:48:40.659Z,8.30
2022-12-12T02:53:42.368Z,8.33
2022-12-12T02:58:44.101Z,8.43
2022-12-12T03:03:57.276Z,9.73
2022-12-12T03:09:08.117Z,7.10
2022-12-12T03:14:15.739Z,8.53
2022-12-12T03:19:27.268Z,8.67
2022-12-12T03:24:34.155Z,8.47
2022-12-12T03:29:42.687Z,8.53
2022-12-12T03:34:50.265Z,8.17
2022-12-12T03:39:56.879Z,8.93
2022-12-12T03:45:04.548Z,10.13
2022-12-12T03:50:14.686Z,7.80
2022-12-12T03:55:22.942Z,9.10
2022-12-12T04:00:25.460Z,8.23
2022-12-12T04:05:35.969Z,8.67
2022-12-12T04:10:45.205Z,8.67
2022-12-12T04:16:00.069Z,9.47
2022-12-12T04:21:20.274Z,8.97
2022-12-12T04:26:28.508Z,10.17
2022-12-12T04:31:34.593Z,7.47
2022-12-12T04:36:40.972Z,7.70
2022-12-12T04:41:46.025Z,7.67
2022-12-12T04:46:52.907Z,8.93
2022-12-12T04:52:01.105Z,7.90
2022-12-12T04:57:08.342Z,8.30
2022-12-12T05:02:19.337Z,8.43
2022-12-12T05:07:29.497Z,7.57
2022-12-12T05:12:40.200Z,6.70
2022-12-12T05:17:45.890Z,7.10
2022-12-12T05:22:49.233Z,7.30
2022-12-12T05:27:51.087Z,6.63
2022-12-12T05:32:53.225Z,6.17
2022-12-12T05:37:56.632Z,6.60
2022-12-12T05:42:58.818Z,6.10
2022-12-12T05:48:01.184Z,6.07
2022-12-12T05:53:04.711Z,5.50
2022-12-12T05:58:06.990Z,6.47
2022-12-12T06:03:09.075Z,5.87
2022-12-12T06:08:12.210Z,4.73
2022-12-12T06:13:14.422Z,4.73
2022-12-12T06:18:16.137Z,7.00
2022-12-12T06:23:19.680Z,4.63
2022-12-12T06:28:21.530Z,4.97
2022-12-12T06:33:23.842Z,5.13
2022-12-12T06:38:27.508Z,5.27
2022-12-12T06:43:29.799Z,4.33
2022-12-12T06:48:33.487Z,4.37
2022-12-12T06:53:37.136Z,5.77
2022-12-12T06:58:39.808Z,4.73
2022-12-12T07:03:41.832Z,4.07
2022-12-12T07:08:45.200Z,4.57
2022-12-12T07:13:47.502Z,5.07
2022-12-12T07:18:49.706Z,4.17
2022-12-12T07:23:52.921Z,4.57
2022-12-12T07:28:54.820Z,4.60
2022-12-12T07:33:56.556Z,5.30
2022-12-12T07:38:59.650Z,4.53
2022-12-12T07:44:02.089Z,3.73
2022-12-12T07:49:04.718Z,5.60
2022-12-12T07:54:08.127Z,4.93
2022-12-12T07:59:10.472Z,5.30
2022-12-12T08:04:12.900Z,5.17
2022-12-12T08:09:16.819Z,5.73
2022-12-12T08:14:19.049Z,4.40
2022-12-12T08:19:21.440Z,4.90
2022-12-12T08:24:25.177Z,4.87
2022-12-12T08:29:27.419Z,4.03
2022-12-12T08:34:29.656Z,5.10
2022-12-12T08:39:33.884Z,4.53
2022-12-12T08:44:36.089Z,4.93
2022-12-12T08:49:38.456Z,4.20
2022-12-12T08:54:42.054Z,4.30
2022-12-12T08:59:44.070Z,4.07
2022-12-12T09:04:46.320Z,4.30
2022-12-12T09:09:49.711Z,5.40
2022-12-12T09:14:51.580Z,4.27
2022-12-12T09:19:53.827Z,4.67
2022-12-12T09:24:57.147Z,4.27
2022-12-12T09:29:59.040Z,3.63
2022-12-12T09:35:01.265Z,4.10
2022-12-12T09:40:05.612Z,4.03
2022-12-12T09:45:08.909Z,4.10
2022-12-12T09:50:19.187Z,3.60
2022-12-12T09:55:39.215Z,3.83
2022-12-12T10:00:47.646Z,3.40
2022-12-12T10:06:13.608Z,3.53
2022-12-12T10:11:26.309Z,3.43
2022-12-12T10:16:31.667Z,3.87
2022-12-12T10:21:37.069Z,3.73
2022-12-12T10:26:41.423Z,4.23
2022-12-12T10:31:52.938Z,3.20
2022-12-12T10:37:08.736Z,3.50
2022-12-12T10:42:20.431Z,3.70
2022-12-12T10:47:22.640Z,3.33
2022-12-12T10:52:25.098Z,3.77
2022-12-12T10:57:34.092Z,3.47
2022-12-12T11:02:38.597Z,3.80
2022-12-12T11:07:44.298Z,3.73
2022-12-12T11:12:55.992Z,3.80
2022-12-12T11:18:04.247Z,4.03
2022-12-12T11:23:18.532Z,3.90
2022-12-12T11:28:24.542Z,5.00
2022-12-12T11:33:33.962Z,4.23
2022-12-12T11:38:40.374Z,5.00
2022-12-12T11:43:56.831Z,4.90
2022-12-12T11:49:02.517Z,5.13
2022-12-12T11:54:11.192Z,4.20
2022-12-12T11:59:48.912Z,4.70
2022-12-12T12:05:02.076Z,4.27
2022-12-12T12:10:10.570Z,5.43
2022-12-12T12:15:34.009Z,4.47
2022-12-12T12:20:56.125Z,6.80
2022-12-12T12:26:04.759Z,6.03
2022-12-12T12:31:19.396Z,5.63
2022-12-12T12:36:24.433Z,5.63
2022-12-12T12:41:38.484Z,4.70
2022-12-12T12:46:50.217Z,5.13
2022-12-12T12:51:57.090Z,4.97
2022-12-12T12:57:04.276Z,4.83
2022-12-12T13:02:18.443Z,4.63
2022-12-12T13:07:32.128Z,3.97
2022-12-12T13:12:40.143Z,4.20
2022-12-12T13:17:52.223Z,3.93
2022-12-12T13:23:11.240Z,3.60
2022-12-12T13:28:17.545Z,3.90
2022-12-12T13:33:36.749Z,3.23
2022-12-12T13:38:40.780Z,4.43
2022-12-12T13:43:47.929Z,4.77
2022-12-12T13:48:54.647Z,4.10
2022-12-12T13:54:30.082Z,4.37
2022-12-12T13:59:32.273Z,4.07
2022-12-12T14:04:37.130Z,4.90
2022-12-12T14:09:48.278Z,4.63
2022-12-12T14:14:56.247Z,5.27
2022-12-12T14:20:00.508Z,5.20
2022-12-12T14:25:10.328Z,4.60
2022-12-12T14:30:17.303Z,3.90
2022-12-12T14:35:35.103Z,4.43
2022-12-12T14:40:43.810Z,4.23
2022-12-12T14:45:57.222Z,4.47
2022-12-12T14:51:05.364Z,4.90
2022-12-12T14:56:11.574Z,4.67
2022-12-12T15:01:18.229Z,4.60
2022-12-12T15:06:27.481Z,5.57
2022-12-12T15:11:32.521Z,5.87
2022-12-12T15:16:46.091Z,5.90
2022-12-12T15:21:54.198Z,4.90
2022-12-12T15:26:58.057Z,3.87
2022-12-12T15:32:02.767Z,5.67
2022-12-12T15:37:24.468Z,5.53
2022-12-12T15:42:27.604Z,6.17
2022-12-12T15:47:30.224Z,6.60
2022-12-12T15:52:33.646Z,6.13
2022-12-12T15:57:45.942Z,6.20
2022-12-12T16:02:57.833Z,6.03
2022-12-12T16:08:35.178Z,6.10
2022-12-12T16:13:39.370Z,7.10
2022-12-12T16:18:41.519Z,7.07
2022-12-12T16:23:45.029Z,6.10
2022-12-12T16:28:46.756Z,5.67
2022-12-12T16:33:48.899Z,6.40
2022-12-12T16:38:52.240Z,6.40
2022-12-12T16:43:54.681Z,6.80
2022-12-12T16:48:56.892Z,6.27
2022-12-12T16:54:01.181Z,5.77
2022-12-12T16:59:03.696Z,5.77
2022-12-12T17:04:15.573Z,6.80
2022-12-12T17:09:19.496Z,8.13
2022-12-12T17:14:24.771Z,7.00
2022-12-12T17:19:27.516Z,6.37
2022-12-12T17:24:31.183Z,5.53
2022-12-12T17:29:33.237Z,7.13
2022-12-12T17:34:35.452Z,6.20
2022-12-12T17:39:39.176Z,6.83
2022-12-12T17:44:41.342Z,8.90
2022-12-12T17:49:43.575Z,8.23
2022-12-12T17:55:54.851Z,7.50
2022-12-12T18:00:11.500Z,7.43
2022-12-12T18:05:14.080Z,6.97
2022-12-12T18:10:17.751Z,7.27
2022-12-12T18:15:19.987Z,7.70
2022-12-12T18:20:24.350Z,7.43
2022-12-12T18:25:30.467Z,8.93
2022-12-12T18:30:34.136Z,7.20
2022-12-12T18:35:35.935Z,7.07
2022-12-12T18:40:39.740Z,8.27
2022-12-12T18:45:42.217Z,12.63
2022-12-12T18:50:44.465Z,11.33
2022-12-12T18:55:47.976Z,8.73
2022-12-12T19:00:50.145Z,9.07
2022-12-12T19:05:52.274Z,7.77
2022-12-12T19:10:55.441Z,8.47
2022-12-12T19:16:03.039Z,8.70
2022-12-12T19:21:05.844Z,7.70
2022-12-12T19:26:11.969Z,7.30
2022-12-12T19:31:16.723Z,8.47
2022-12-12T19:36:20.857Z,8.97
2022-12-12T19:41:25.666Z,9.07
2022-12-12T19:46:29.728Z,7.70
2022-12-12T19:51:33.512Z,9.43
2022-12-12T19:56:38.615Z,8.83
2022-12-12T20:01:41.276Z,9.53
2022-12-12T20:06:45.433Z,10.43
2022-12-12T20:11:49.677Z,9.90
2022-12-12T20:16:53.064Z,10.03
2022-12-12T20:22:01.230Z,7.73
2022-12-12T20:27:05.625Z,8.83
2022-12-12T20:32:07.863Z,9.17
2022-12-12T20:37:13.016Z,8.73
2022-12-12T20:42:18.784Z,7.60
2022-12-12T20:47:20.824Z,8.37
2022-12-12T20:52:23.129Z,8.57
2022-12-12T20:57:26.907Z,7.53
2022-12-12T21:02:30.553Z,7.27
2022-12-12T21:07:33.758Z,8.33
2022-12-12T21:12:38.294Z,7.80
2022-12-12T21:17:40.544Z,7.67
2022-12-12T21:22:43.487Z,6.60
2022-12-12T21:27:47.489Z,6.50
2022-12-12T21:32:49.279Z,6.43
2022-12-12T21:37:51.188Z,6.83
2022-12-12T21:42:54.702Z,6.20
2022-12-12T21:47:56.837Z,5.87
2022-12-12T21:52:59.095Z,6.00
2022-12-12T21:58:02.662Z,6.23
2022-12-12T22:03:04.756Z,5.87
2022-12-12T22:08:07.207Z,6.97
2022-12-12T22:13:10.544Z,5.90
2022-12-12T22:18:12.524Z,6.87
2022-12-12T22:23:14.438Z,6.57
2022-12-12T22:28:18.014Z,7.37
2022-12-12T22:33:20.202Z,6.27
2022-12-12T22:38:22.508Z,7.07
2022-12-12T22:43:26.410Z,6.93
2022-12-12T22:48:29.588Z,6.67
2022-12-12T22:53:31.689Z,6.47
2022-12-12T22:58:35.249Z,7.87
2022-12-12T23:03:37.967Z,7.10
2022-12-12T23:08:40.947Z,8.87
2022-12-12T23:13:45.447Z,7.83
2022-12-12T23:18:48.683Z,7.57
2022-12-12T23:23:51.516Z,8.50
2022-12-12T23:28:55.060Z,9.23
2022-12-12T23:33:59.436Z,9.00
2022-12-12T23:39:04.349Z,7.93
2022-12-12T23:44:08.612Z,9.03
2022-12-12T23:49:15.518Z,8.07
2022-12-12T23:54:20.510Z,8.47
2022-12-12T23:59:24.138Z,8.17
